PTAO2: Poteau River, Poteau, OK

                                SHEF ID:       PTAO2     Poteau River at Poteau, OK
STATION TYPE:
Regulating: Stage = 20.00, Flow = 7395

PRECIP STAGE RIV-FLOW VOLTAGE BAT-LOAD
in ft cfs volt volt
Ccp-Rev Ccp-Rev Ccp-Rev Ccp-Rev Ccp-Rev
(America/Chicago)
07/09 00:00 0.00 11.11 3265 12.90 12.29
07/09 01:00 0.00 10.95 3206 12.88 12.26
07/09 02:00 0.00 10.77 3140 12.87 12.30
07/09 03:00 0.00 10.62 3084 12.87 12.26
07/09 04:00 0.00 10.50 3040 12.86 12.25
07/09 05:00 0.00 10.34 2982 12.86 12.23
07/09 06:00 0.00 10.20 2930 12.84 12.23
07/09 07:00 0.00 10.09 2890 12.93 12.23
07/09 08:00 0.00 9.97 2846 13.87 12.67
07/09 09:00 0.00 9.86 2806 13.92 12.90
07/09 10:00 0.00 9.76 2770 13.26 12.67
07/09 11:00 0.00 9.66 2734 13.13 12.50
07/09 12:00 0.00 9.57 2701 13.06 12.44
07/09 13:00 0.00 9.49 2672 13.04 12.40
07/09 14:00 0.00 9.40 2639 13.06 12.41
07/09 15:00 0.00 9.33 2614 13.03 12.40
07/09 16:00 0.00 9.24 2581 12.97 12.31
07/09 17:00 0.00 9.20 2567 12.94 12.25
07/09 18:00 0.00 9.15 2549 12.94 12.24
07/09 19:00 0.00 9.13 2542 13.03 12.32
07/09 20:00 0.00 9.08 2524 13.01 12.33
07/09 21:00 0.00 9.04 2509 12.89 12.22
07/09 22:00 0.00 9.02 2502 12.86 12.21
07/09 23:00 0.00 8.99 2491 12.86 12.25
Data processed at Thu 10Jul2025 04:48 GMT

Parsing this webpage?

Checkout our new Data API! CWMSDataAPI (CDA)

Timeseries IDs (TSIDs)

TSIDs used from left to right in the data table
POTE.Precip-Inc.Total.1Hour.1Hour.Ccp-Rev
POTE.Stage.Inst.1Hour.0.Ccp-Rev
POTE.Flow.Inst.1Hour.0.Ccp-Rev
POTE.Volt-Battery.Inst.1Hour.0.Ccp-Rev
POTE.Volt-Battery Load.Inst.1Hour.0.Ccp-Rev

                            

All information presented herein is the property of the government of the United States of America and may be revised or deleted at any time without prior notice. Dissemination of this information without the expressed written consent of the Public Affairs Office, Tulsa District U.S. Army Corps of Engineers is strictly prohibited. These data are gathered electronically and, as presented, have NOT undergone any form of quality control. These data are NOT guaranteed to be valid or correct.